Time;durP1;ratioP1;P1;durP2;ratioP2;P2;SDS_P1;SDS_P2;PMS_P1;PMS_P2;Temp;Humidity;BMP_temperature;BMP_pressure;BME280_temperature;BME280_humidity;BME280_pressure;Samples;Min_cycle;Max_cycle;Signal;HPM_P1;HPM_P2
2023/04/07 00:01:45;;;;;;;;;;;;;;;20.23;42.48;101491.75;4967109;28;2718;-59
2023/04/07 00:04:11;;;;;;;;;;;;;;;20.23;42.49;101494.63;4969879;28;2670;-60
2023/04/07 00:06:39;;;;;;;;;;;;;;;20.21;42.58;101485.88;4967613;28;1541;-60
2023/04/07 00:09:05;;;;;;;;;;;;;;;20.21;42.42;101491.63;4968847;28;2623;-60
2023/04/07 00:11:32;;;;;;;;;;;;;;;20.20;42.41;101487.25;4969410;28;1623;-60
2023/04/07 00:13:58;;;;;;;;;;;;;;;20.19;42.52;101480.03;4969096;28;2445;-60
2023/04/07 00:16:24;;;;;;;;;;;;;;;20.20;42.37;101484.38;4968639;28;1712;-60
2023/04/07 00:18:51;;;;;;;;;;;;;;;20.19;42.26;101483.63;4968768;28;2712;-60
2023/04/07 00:21:17;;;;;;;;;;;;;;;20.18;42.30;101487.91;4969538;28;1727;-60
2023/04/07 00:23:44;;;;;;;;;;;;;;;20.16;42.40;101482.03;4967149;28;2683;-59
2023/04/07 00:26:10;;;;;;;;;;;;;;;20.18;42.44;101475.63;4967326;28;1731;-60
2023/04/07 00:28:38;;;;;;;;;;;;;;;20.18;42.30;101481.38;4948420;28;2702;-60
2023/04/07 00:31:04;;;;;;;;;;;;;;;20.19;42.08;101475.00;4968339;28;2501;-60
2023/04/07 00:33:31;;;;;;;;;;;;;;;20.20;42.25;101473.66;4967173;28;1727;-60
2023/04/07 00:35:57;;;;;;;;;;;;;;;20.22;42.45;101475.88;4968017;28;2612;-60
2023/04/07 00:38:24;;;;;;;;;;;;;;;20.24;42.35;101473.13;4955529;28;2567;-60
2023/04/07 00:40:56;;;;;;;;;;;;;;;20.24;42.42;101470.22;4968967;28;1664;-60
2023/04/07 00:43:24;;;;;;;;;;;;;;;20.25;42.51;101468.88;4969242;28;1914;-60
2023/04/07 00:45:51;;;;;;;;;;;;;;;20.26;42.59;101473.97;4950067;28;2649;-60
2023/04/07 00:48:17;;;;;;;;;;;;;;;20.27;42.38;101468.97;4965864;28;1785;-60
2023/04/07 00:50:44;;;;;;;;;;;;;;;20.28;42.72;101479.09;4949950;28;2584;-60
2023/04/07 00:53:11;;;;;;;;;;;;;;;20.27;42.57;101471.84;4967044;28;2616;-60
2023/04/07 00:55:37;;;;;;;;;;;;;;;20.26;42.62;101470.34;4968543;28;1643;-60
2023/04/07 00:58:04;;;;;;;;;;;;;;;20.25;42.68;101474.63;4949965;28;2634;-60
2023/04/07 01:00:31;;;;;;;;;;;;;;;20.25;42.72;101468.88;4939806;28;2655;-60
2023/04/07 01:03:00;;;;;;;;;;;;;;;20.24;42.74;101461.59;4964064;28;2744;-60
2023/04/07 01:09:46;;;;;;;;;;;;;;;20.22;42.78;101465.09;4960310;28;1694;-60
2023/04/07 01:12:23;;;;;;;;;;;;;;;20.22;42.56;101465.09;4955877;28;2717;-60
2023/04/07 01:14:51;;;;;;;;;;;;;;;20.22;42.78;101464.38;4933872;28;1761;-60
2023/04/07 01:17:33;;;;;;;;;;;;;;;20.23;42.85;101460.13;4964362;28;2412;-59
2023/04/07 01:20:07;;;;;;;;;;;;;;;20.24;43.05;101450.09;4947844;28;1862;-60
2023/04/07 01:22:37;;;;;;;;;;;;;;;20.23;42.68;101452.25;4949490;28;2488;-60
2023/04/07 01:25:23;;;;;;;;;;;;;;;20.25;42.91;101446.59;4948375;28;2486;-60
2023/04/07 01:27:55;;;;;;;;;;;;;;;20.25;42.70;101448.75;4963737;28;2579;-60
2023/04/07 01:30:21;;;;;;;;;;;;;;;20.26;42.74;101448.09;4959890;28;1732;-60
2023/04/07 01:32:49;;;;;;;;;;;;;;;20.26;42.76;101442.34;4943740;28;2643;-60
2023/04/07 01:35:16;;;;;;;;;;;;;;;20.24;42.74;101436.47;4950792;28;2556;-60
2023/04/07 01:37:42;;;;;;;;;;;;;;;20.24;42.69;101445.09;4948900;28;2639;-60
2023/04/07 01:40:09;;;;;;;;;;;;;;;20.24;42.65;101447.22;4948695;28;2706;-60
2023/04/07 01:42:36;;;;;;;;;;;;;;;20.23;42.80;101440.75;4948010;28;1766;-60
2023/04/07 01:45:03;;;;;;;;;;;;;;;20.21;42.77;101434.13;4950760;28;2429;-60
2023/04/07 01:47:29;;;;;;;;;;;;;;;20.22;42.86;101435.59;4952734;28;2438;-60
2023/04/07 01:49:57;;;;;;;;;;;;;;;20.21;42.69;101437.75;4926300;28;2603;-59
2023/04/07 01:52:24;;;;;;;;;;;;;;;20.22;42.71;101439.22;4967466;28;2654;-60
2023/04/07 01:54:51;;;;;;;;;;;;;;;20.22;42.60;101435.59;4933539;28;1820;-60
2023/04/07 01:57:18;;;;;;;;;;;;;;;20.22;42.50;101429.84;4949878;28;1945;-60
2023/04/07 01:59:46;;;;;;;;;;;;;;;20.23;42.67;101437.88;4950486;28;1750;-60
2023/04/07 02:02:14;;;;;;;;;;;;;;;20.25;42.61;101428.59;4950189;28;2586;-60
2023/04/07 02:04:59;;;;;;;;;;;;;;;20.24;42.73;101416.34;4950690;28;2548;-60
2023/04/07 02:07:39;;;;;;;;;;;;;;;20.23;42.61;101437.13;4953283;28;1797;-60
2023/04/07 02:10:06;;;;;;;;;;;;;;;20.24;42.74;101433.59;4968248;28;2577;-60
2023/04/07 02:12:32;;;;;;;;;;;;;;;20.24;42.67;101435.72;4968772;28;2439;-60
2023/04/07 02:15:10;;;;;;;;;;;;;;;20.23;42.77;101437.13;4954398;28;1719;-60
2023/04/07 02:17:37;;;;;;;;;;;;;;;20.21;42.62;101423.38;4955915;28;2786;-60
2023/04/07 02:20:05;;;;;;;;;;;;;;;20.22;42.73;101424.09;4970982;28;1771;-60
2023/04/07 02:22:31;;;;;;;;;;;;;;;20.21;42.64;101425.50;4952726;28;2527;-60
2023/04/07 02:24:58;;;;;;;;;;;;;;;20.21;42.67;101434.13;4968154;28;2553;-60
2023/04/07 02:27:25;;;;;;;;;;;;;;;20.19;42.67;101420.38;4948618;28;2044;-60
2023/04/07 02:29:52;;;;;;;;;;;;;;;20.20;42.73;101421.13;4952339;28;2565;-60
2023/04/07 02:32:21;;;;;;;;;;;;;;;20.19;42.75;101414.63;4949858;28;2598;-60
2023/04/07 02:34:49;;;;;;;;;;;;;;;20.21;42.58;101428.38;4968728;28;2585;-60
2023/04/07 02:37:16;;;;;;;;;;;;;;;20.21;42.75;101419.75;4971426;28;1939;-60
2023/04/07 02:39:42;;;;;;;;;;;;;;;20.21;42.73;101411.88;4952891;28;2564;-60
2023/04/07 02:42:08;;;;;;;;;;;;;;;20.24;42.65;101415.59;4970490;28;1708;-60
2023/04/07 02:44:35;;;;;;;;;;;;;;;20.24;42.54;101409.84;4970456;28;2703;-60
2023/04/07 02:47:02;;;;;;;;;;;;;;;20.25;42.52;101417.09;4969496;28;2006;-60
2023/04/07 02:49:28;;;;;;;;;;;;;;;20.26;42.63;101416.44;4951822;28;1739;-60
2023/04/07 02:51:55;;;;;;;;;;;;;;;20.26;42.65;101413.56;4970596;28;1793;-60
2023/04/07 02:54:21;;;;;;;;;;;;;;;20.28;42.49;101418.69;4969909;28;2299;-60
2023/04/07 02:56:48;;;;;;;;;;;;;;;20.29;42.59;101409.44;4968815;28;2738;-60
2023/04/07 02:59:14;;;;;;;;;;;;;;;20.29;42.59;101418.06;4952476;28;2536;-60
2023/04/07 03:01:42;;;;;;;;;;;;;;;20.31;42.68;101411.66;4951998;28;3801;-60
2023/04/07 03:04:09;;;;;;;;;;;;;;;20.30;42.44;101415.94;4952105;28;2300;-60
2023/04/07 03:06:35;;;;;;;;;;;;;;;20.30;42.46;101410.19;4970237;28;1919;-60
2023/04/07 03:09:07;;;;;;;;;;;;;;;20.29;42.56;101411.56;4952052;28;2690;-60
2023/04/07 03:11:34;;;;;;;;;;;;;;;20.28;42.58;101410.81;4969981;28;1777;-60
2023/04/07 03:14:01;;;;;;;;;;;;;;;20.28;42.72;101410.81;4947614;28;2493;-60
2023/04/07 03:16:29;;;;;;;;;;;;;;;20.28;42.67;101415.81;4949116;28;1760;-60
2023/04/07 03:19:00;;;;;;;;;;;;;;;20.28;42.50;101402.19;4957496;28;2690;-60
2023/04/07 03:21:30;;;;;;;;;;;;;;;20.27;42.64;101397.84;4968378;28;1756;-60
2023/04/07 03:23:57;;;;;;;;;;;;;;;20.29;42.62;101405.81;4969460;28;2412;-60
2023/04/07 03:26:23;;;;;;;;;;;;;;;20.28;42.57;101410.81;4968674;28;2358;-60
2023/04/07 03:28:50;;;;;;;;;;;;;;;20.30;42.62;101401.56;4968927;28;1812;-60
2023/04/07 03:31:17;;;;;;;;;;;;;;;20.28;42.60;101405.06;4945537;28;2536;-60
2023/04/07 03:33:44;;;;;;;;;;;;;;;20.29;42.56;101408.69;4951530;28;2404;-60
2023/04/07 03:36:10;;;;;;;;;;;;;;;20.28;42.53;101401.44;4964737;28;1866;-60
2023/04/07 03:38:37;;;;;;;;;;;;;;;20.28;42.71;101398.56;4951288;28;2069;-60
2023/04/07 03:41:04;;;;;;;;;;;;;;;20.27;42.52;101402.81;4969236;28;2589;-60
2023/04/07 03:43:31;;;;;;;;;;;;;;;20.27;42.48;101397.84;4968219;28;2497;-60
2023/04/07 03:45:57;;;;;;;;;;;;;;;20.26;42.69;101390.56;4948182;28;1974;-60
2023/04/07 03:48:24;;;;;;;;;;;;;;;20.27;42.51;101389.19;4954572;28;2659;-60
2023/04/07 03:51:00;;;;;;;;;;;;;;;20.27;42.52;101392.06;4948047;28;2013;-60
2023/04/07 03:53:26;;;;;;;;;;;;;;;20.29;42.46;101388.56;4967056;28;2496;-60
2023/04/07 03:55:53;;;;;;;;;;;;;;;20.28;42.45;101389.94;4967996;28;1904;-60
2023/04/07 03:58:40;;;;;;;;;;;;;;;20.29;42.58;101395.06;4951360;28;2125;-60
2023/04/07 04:01:07;;;;;;;;;;;;;;;20.31;42.50;101400.16;4953377;28;2116;-60
2023/04/07 04:03:34;;;;;;;;;;;;;;;20.32;42.47;101398.81;4950384;28;2330;-60
2023/04/07 04:06:15;;;;;;;;;;;;;;;20.34;42.49;101401.78;4952447;28;1985;-60
2023/04/07 04:08:41;;;;;;;;;;;;;;;20.33;42.59;101394.53;4968880;28;2175;-60
2023/04/07 04:11:08;;;;;;;;;;;;;;;20.33;42.47;101393.78;4951316;28;2603;-60
2023/04/07 04:13:42;;;;;;;;;;;;;;;20.33;42.44;101400.28;4966570;28;2790;-60
2023/04/07 04:16:08;;;;;;;;;;;;;;;20.31;42.43;101394.41;4947161;28;2480;-60
2023/04/07 04:18:37;;;;;;;;;;;;;;;20.32;42.50;101404.56;4952561;28;1989;-60
2023/04/07 04:21:05;;;;;;;;;;;;;;;20.31;42.57;101400.16;4951481;28;2461;-60
2023/04/07 04:23:32;;;;;;;;;;;;;;;20.30;42.51;101407.31;4967376;28;2570;-60
2023/04/07 04:26:02;;;;;;;;;;;;;;;20.29;42.62;101406.56;4949596;28;2548;-60
2023/04/07 04:28:30;;;;;;;;;;;;;;;20.30;42.53;101407.31;4966150;28;1870;-60
2023/04/07 04:30:57;;;;;;;;;;;;;;;20.28;42.62;101404.31;4950507;28;2088;-60
2023/04/07 04:33:23;;;;;;;;;;;;;;;20.29;42.61;101405.81;4968508;28;3270;-60
2023/04/07 04:35:54;;;;;;;;;;;;;;;20.29;42.60;101405.81;4952455;28;1977;-60
2023/04/07 04:38:22;;;;;;;;;;;;;;;20.29;42.59;101411.56;4950473;28;2006;-61
2023/04/07 04:40:53;;;;;;;;;;;;;;;20.29;42.44;101405.81;4967828;28;2433;-61
2023/04/07 04:43:25;;;;;;;;;;;;;;;20.31;42.56;101405.91;4965636;28;2492;-60
2023/04/07 04:45:51;;;;;;;;;;;;;;;20.32;42.40;101410.31;4951846;28;1997;-60
2023/04/07 04:48:22;;;;;;;;;;;;;;;20.33;42.35;101411.03;4950123;28;2303;-60
2023/04/07 04:50:48;;;;;;;;;;;;;;;20.34;42.48;101406.78;4964081;28;1936;-60
2023/04/07 04:53:14;;;;;;;;;;;;;;;20.34;42.43;101401.78;4967840;28;2728;-61
2023/04/07 04:55:50;;;;;;;;;;;;;;;20.33;42.41;101408.16;4944357;28;1898;-60
2023/04/07 04:58:21;;;;;;;;;;;;;;;20.33;42.48;101400.28;4946916;28;2619;-60
2023/04/07 05:00:56;;;;;;;;;;;;;;;20.33;42.63;101406.03;4950911;28;2572;-60
2023/04/07 05:03:28;;;;;;;;;;;;;;;20.34;42.49;101407.53;4964348;28;1948;-61
2023/04/07 05:05:58;;;;;;;;;;;;;;;20.38;42.34;101401.25;4965299;28;2629;-61
2023/04/07 05:08:24;;;;;;;;;;;;;;;20.35;42.49;101403.28;4964707;28;1869;-68
2023/04/07 05:10:51;;;;;;;;;;;;;;;20.20;42.84;101406.72;4948617;28;2592;-68
2023/04/07 05:13:21;;;;;;;;;;;;;;;20.15;42.78;101405.03;4946919;28;2631;-68
2023/04/07 05:15:48;;;;;;;;;;;;;;;20.19;42.05;101408.13;4951295;28;1822;-68
2023/04/07 05:18:14;;;;;;;;;;;;;;;20.23;41.65;101408.34;4950992;28;2984;-68
2023/04/07 05:20:41;;;;;;;;;;;;;;;20.27;41.62;101420.06;4967060;28;2554;-68
2023/04/07 05:23:08;;;;;;;;;;;;;;;20.28;41.53;101421.56;4966440;28;2673;-68
2023/04/07 05:25:35;;;;;;;;;;;;;;;20.31;41.52;101420.31;4966705;28;1958;-68
2023/04/07 05:28:03;;;;;;;;;;;;;;;20.31;41.58;101426.06;4948328;28;1747;-68
2023/04/07 05:30:30;;;;;;;;;;;;;;;20.33;41.51;101422.56;4951021;28;1941;-68
2023/04/07 05:32:57;;;;;;;;;;;;;;;20.34;41.52;101430.56;4951610;28;1759;-68
2023/04/07 05:35:45;;;;;;;;;;;;;;;20.32;41.67;101427.56;4950738;28;2487;-67
2023/04/07 05:38:12;;;;;;;;;;;;;;;20.33;41.58;101414.66;4953702;28;1719;-67
2023/04/07 05:40:39;;;;;;;;;;;;;;;20.33;41.69;101419.69;4951057;28;2696;-67
2023/04/07 05:43:08;;;;;;;;;;;;;;;20.32;41.81;101426.78;4949581;28;2753;-67
2023/04/07 05:45:35;;;;;;;;;;;;;;;20.34;41.69;101424.81;4969619;28;2623;-68
2023/04/07 05:48:01;;;;;;;;;;;;;;;20.37;41.69;101429.28;4952383;28;2833;-68
2023/04/07 05:50:37;;;;;;;;;;;;;;;20.38;41.66;101427.88;4952199;28;2868;-68
2023/04/07 05:53:07;;;;;;;;;;;;;;;20.38;41.62;101425.00;4955091;28;2652;-68
2023/04/07 05:55:35;;;;;;;;;;;;;;;20.41;41.56;101420.88;4970010;28;1804;-67
2023/04/07 05:58:02;;;;;;;;;;;;;;;20.40;41.65;101421.50;4956569;28;2571;-68
2023/04/07 06:00:30;;;;;;;;;;;;;;;20.41;41.67;101426.63;4970516;28;2651;-68
2023/04/07 06:03:03;;;;;;;;;;;;;;;20.40;41.72;101415.75;4955190;28;2610;-67
2023/04/07 06:05:42;;;;;;;;;;;;;;;20.40;41.78;101424.38;4954703;28;1914;-68
2023/04/07 06:08:09;;;;;;;;;;;;;;;20.40;41.66;101425.13;4956635;28;1850;-67
2023/04/07 06:10:36;;;;;;;;;;;;;;;20.39;41.70;101420.75;4969580;28;1773;-67
2023/04/07 06:13:02;;;;;;;;;;;;;;;20.39;41.74;101420.03;4971011;28;2567;-67
2023/04/07 06:15:28;;;;;;;;;;;;;;;20.41;41.75;101418.00;4968154;28;1807;-68
2023/04/07 06:17:55;;;;;;;;;;;;;;;20.41;41.85;101415.13;4955003;28;2083;-68
2023/04/07 06:20:23;;;;;;;;;;;;;;;20.40;41.78;101428.00;4953371;28;2398;-68
2023/04/07 06:22:49;;;;;;;;;;;;;;;20.39;41.89;101423.63;4970473;28;2248;-67
2023/04/07 06:25:16;;;;;;;;;;;;;;;20.42;41.82;101430.25;4968904;28;2443;-67
2023/04/07 06:27:43;;;;;;;;;;;;;;;20.42;41.75;101431.00;4970665;28;1994;-68
2023/04/07 06:30:09;;;;;;;;;;;;;;;20.43;41.87;101426.75;4951488;28;2697;-67
2023/04/07 06:32:36;;;;;;;;;;;;;;;20.45;41.67;101428.97;4953086;28;2514;-67
2023/04/07 06:35:02;;;;;;;;;;;;;;;20.45;41.79;101435.47;4953673;28;3114;-67
2023/04/07 06:37:28;;;;;;;;;;;;;;;20.45;41.71;101431.84;4965383;28;2976;-67
2023/04/07 06:39:55;;;;;;;;;;;;;;;20.44;41.96;101436.84;4970995;28;1756;-68
2023/04/07 06:42:21;;;;;;;;;;;;;;;20.44;41.90;101436.84;4970817;28;1920;-67
2023/04/07 06:44:56;;;;;;;;;;;;;;;20.43;41.89;101435.38;4969941;28;2547;-67
2023/04/07 06:47:23;;;;;;;;;;;;;;;20.45;41.96;101437.59;4970763;28;2674;-68
2023/04/07 06:49:49;;;;;;;;;;;;;;;20.43;41.89;101432.50;4970248;28;1844;-68
2023/04/07 06:52:15;;;;;;;;;;;;;;;20.44;41.92;101433.97;4970422;28;2611;-68
2023/04/07 06:54:42;;;;;;;;;;;;;;;20.43;41.96;101426.75;4970735;28;2717;-68
2023/04/07 06:57:10;;;;;;;;;;;;;;;20.42;41.94;101433.88;4969442;28;2624;-68
2023/04/07 06:59:37;;;;;;;;;;;;;;;20.44;41.87;101433.25;4969276;28;2611;-67
2023/04/07 07:02:03;;;;;;;;;;;;;;;20.43;41.80;101426.75;4967797;28;2666;-67
2023/04/07 07:04:30;;;;;;;;;;;;;;;20.45;41.98;101429.72;4969801;28;2334;-67
2023/04/07 07:06:57;;;;;;;;;;;;;;;20.43;41.88;101425.97;4970466;28;1970;-68
2023/04/07 07:09:23;;;;;;;;;;;;;;;20.44;41.90;101422.47;4969094;28;2063;-67
2023/04/07 07:11:49;;;;;;;;;;;;;;;20.46;41.88;101431.22;4969317;28;1744;-67
2023/04/07 07:14:16;;;;;;;;;;;;;;;20.48;41.93;101428.44;4970350;28;1967;-68
2023/04/07 07:16:42;;;;;;;;;;;;;;;20.49;41.84;101427.06;4970039;28;1857;-67
2023/04/07 07:19:08;;;;;;;;;;;;;;;20.50;41.98;101436.44;4970847;28;2231;-67
2023/04/07 07:21:35;;;;;;;;;;;;;;;20.49;42.01;101429.94;4969617;28;1771;-68
2023/04/07 07:24:01;;;;;;;;;;;;;;;20.50;41.93;101437.19;4967988;28;2901;-67
2023/04/07 07:26:28;;;;;;;;;;;;;;;20.51;41.77;101444.44;4968634;28;2616;-68
2023/04/07 07:28:54;;;;;;;;;;;;;;;20.48;41.58;101439.97;4969769;28;1821;-68
2023/04/07 07:31:20;;;;;;;;;;;;;;;20.47;41.49;101444.22;4968947;28;2961;-67
2023/04/07 07:33:48;;;;;;;;;;;;;;;20.44;41.47;101442.59;4970015;28;2362;-67
2023/04/07 07:36:15;;;;;;;;;;;;;;;20.43;41.43;101454.75;4968161;28;2397;-67
2023/04/07 07:38:41;;;;;;;;;;;;;;;20.42;41.46;101442.50;4967958;28;2472;-67
2023/04/07 07:41:08;;;;;;;;;;;;;;;20.41;41.45;101446.75;4970453;28;1726;-67
2023/04/07 07:43:35;;;;;;;;;;;;;;;20.43;41.14;101460.50;4970530;28;2753;-67
2023/04/07 07:46:02;;;;;;;;;;;;;;;20.44;40.93;101451.25;4970865;28;1981;-67
2023/04/07 07:48:29;;;;;;;;;;;;;;;20.43;40.55;101446.88;4969831;28;2631;-67
2023/04/07 07:50:55;;;;;;;;;;;;;;;20.46;39.74;101453.50;4971054;28;1658;-67
2023/04/07 07:53:22;;;;;;;;;;;;;;;20.44;40.62;101456.25;4969893;28;1777;-67
2023/04/07 07:55:48;;;;;;;;;;;;;;;20.46;39.69;101453.50;4970509;28;1775;-67
2023/04/07 07:58:14;;;;;;;;;;;;;;;20.46;40.04;101462.84;4969527;28;2576;-69
2023/04/07 08:00:41;;;;;;;;;;;;;;;20.46;39.60;101460.00;4967975;28;2071;-67
2023/04/07 08:03:07;;;;;;;;;;;;;;;20.45;40.32;101454.84;4968181;28;1809;-67
2023/04/07 08:05:34;;;;;;;;;;;;;;;20.41;40.16;101458.28;4964261;28;2739;-67
2023/04/07 08:08:00;;;;;;;;;;;;;;;20.42;39.92;101456.88;4965394;28;2698;-67
2023/04/07 08:10:26;;;;;;;;;;;;;;;20.41;40.01;101452.53;4968680;28;2894;-68
2023/04/07 08:12:53;;;;;;;;;;;;;;;20.30;40.24;101468.44;4969746;28;1856;-68
2023/04/07 08:15:19;;;;;;;;;;;;;;;20.24;40.44;101461.59;4969120;28;2366;-64
2023/04/07 08:17:46;;;;;;;;;;;;;;;20.04;38.35;101459.09;4968918;28;2508;-64
2023/04/07 08:20:12;;;;;;;;;;;;;;;20.17;39.07;101462.66;4969395;28;1813;-64
2023/04/07 08:22:38;;;;;;;;;;;;;;;20.27;36.73;101460.34;4968521;28;2725;-65
2023/04/07 08:25:05;;;;;;;;;;;;;;;20.34;37.70;101453.56;4969433;28;1966;-62
2023/04/07 08:27:31;;;;;;;;;;;;;;;20.40;37.55;101462.50;4966278;28;2826;-62
2023/04/07 08:30:01;;;;;;;;;;;;;;;20.42;37.64;101459.75;4969458;28;2499;-62
2023/04/07 08:32:35;;;;;;;;;;;;;;;20.45;37.73;101461.34;4969452;28;1864;-62
2023/04/07 08:35:01;;;;;;;;;;;;;;;20.45;38.38;101464.22;4968839;28;1690;-62
2023/04/07 08:37:27;;;;;;;;;;;;;;;20.47;37.97;101467.22;4969289;28;1931;-63
2023/04/07 08:39:54;;;;;;;;;;;;;;;20.48;38.46;101462.22;4969349;28;1800;-63
2023/04/07 08:42:20;;;;;;;;;;;;;;;20.47;38.59;101455.72;4969720;28;1801;-62
2023/04/07 08:44:46;;;;;;;;;;;;;;;20.48;38.57;101468.72;4958473;28;2693;-62
2023/04/07 08:47:13;;;;;;;;;;;;;;;20.47;38.45;101472.97;4968871;28;1922;-63
2023/04/07 08:49:40;;;;;;;;;;;;;;;20.48;38.55;101468.00;4969111;28;1658;-62
2023/04/07 08:52:06;;;;;;;;;;;;;;;20.47;38.87;101472.22;4967548;28;1637;-62
2023/04/07 08:54:34;;;;;;;;;;;;;;;20.46;38.67;101462.84;4969149;28;1830;-63
2023/04/07 08:57:01;;;;;;;;;;;;;;;20.47;38.84;101466.47;4966548;28;1816;-62
2023/04/07 08:59:28;;;;;;;;;;;;;;;20.46;39.09;101471.50;4966772;28;1695;-62
2023/04/07 09:01:55;;;;;;;;;;;;;;;20.47;39.04;101467.22;4968501;28;2171;-62
2023/04/07 09:04:23;;;;;;;;;;;;;;;20.47;39.06;101467.22;4967167;28;2184;-62
2023/04/07 09:06:49;;;;;;;;;;;;;;;20.47;38.97;101463.59;4968470;28;1985;-62
2023/04/07 09:09:16;;;;;;;;;;;;;;;20.46;39.14;101474.38;4968832;28;1864;-62
2023/04/07 09:11:42;;;;;;;;;;;;;;;20.47;39.01;101472.97;4968349;28;1678;-62
2023/04/07 09:14:09;;;;;;;;;;;;;;;20.45;39.31;101481.50;4966226;28;1649;-62
2023/04/07 09:16:35;;;;;;;;;;;;;;;20.46;39.26;101477.25;4968232;28;2077;-62
2023/04/07 09:19:01;;;;;;;;;;;;;;;20.46;39.15;101477.25;4965659;28;2603;-61
2023/04/07 09:21:45;;;;;;;;;;;;;;;20.46;39.45;101470.75;4967078;28;2699;-62
2023/04/07 09:24:24;;;;;;;;;;;;;;;20.46;39.55;101479.38;4968599;28;2450;-62
2023/04/07 09:27:07;;;;;;;;;;;;;;;20.46;39.49;101473.63;4966602;28;2615;-59
2023/04/07 09:29:33;;;;;;;;;;;;;;;18.89;32.95;101476.63;4967993;28;2647;-59
2023/04/07 09:31:59;;;;;;;;;;;;;;;18.81;31.84;101471.88;4964428;28;2694;-59
2023/04/07 09:34:27;;;;;;;;;;;;;;;18.93;31.06;101471.13;4967119;28;2536;-64
2023/04/07 09:36:54;;;;;;;;;;;;;;;19.41;31.32;101478.34;4962457;28;1623;-65
2023/04/07 09:39:20;;;;;;;;;;;;;;;19.74;32.02;101480.31;4964380;28;1742;-64
2023/04/07 09:41:46;;;;;;;;;;;;;;;19.91;34.03;101482.03;4967705;28;1625;-64
2023/04/07 09:44:13;;;;;;;;;;;;;;;19.99;35.54;101483.22;4968299;28;1814;-65
2023/04/07 09:46:49;;;;;;;;;;;;;;;20.06;35.21;101481.44;4965902;28;1910;-65
2023/04/07 09:49:15;;;;;;;;;;;;;;;19.93;35.81;101480.00;4964503;28;2727;-64
2023/04/07 09:51:58;;;;;;;;;;;;;;;19.89;35.87;101485.50;4966747;28;2995;-64
2023/04/07 09:54:32;;;;;;;;;;;;;;;20.06;36.84;101485.06;4963869;28;2725;-64
2023/04/07 09:57:00;;;;;;;;;;;;;;;20.14;36.37;101486.94;4962460;28;2699;-64
2023/04/07 09:59:29;;;;;;;;;;;;;;;20.18;36.95;101487.13;4968296;28;2556;-64
2023/04/07 10:01:56;;;;;;;;;;;;;;;20.21;37.27;101480.13;4965097;28;2449;-64
2023/04/07 10:04:23;;;;;;;;;;;;;;;20.24;37.32;101493.25;4965221;28;2541;-65
2023/04/07 10:06:49;;;;;;;;;;;;;;;20.27;37.55;101483.34;4957108;28;2706;-67
2023/04/07 10:09:16;;;;;;;;;;;;;;;20.24;37.89;101484.63;4948566;28;2684;-64
2023/04/07 10:11:43;;;;;;;;;;;;;;;20.09;38.01;101486.69;4964669;28;2714;-64
2023/04/07 10:14:09;;;;;;;;;;;;;;;20.16;38.34;101478.38;4965526;28;2737;-64
2023/04/07 10:16:38;;;;;;;;;;;;;;;20.25;38.04;101486.13;4948694;28;2703;-65
2023/04/07 10:19:05;;;;;;;;;;;;;;;20.28;38.17;101485.59;4953538;28;1647;-64
2023/04/07 10:21:35;;;;;;;;;;;;;;;20.29;38.30;101484.22;4965983;28;2729;-63
2023/04/07 10:24:14;;;;;;;;;;;;;;;20.29;38.15;101492.84;4969213;28;1880;-64
2023/04/07 10:26:41;;;;;;;;;;;;;;;20.33;38.26;101486.56;4972452;28;1973;-65
2023/04/07 10:29:09;;;;;;;;;;;;;;;20.38;38.31;101494.03;4952800;28;1679;-65
2023/04/07 10:31:35;;;;;;;;;;;;;;;20.43;38.38;101495.00;4965483;28;2606;-64
2023/04/07 10:34:02;;;;;;;;;;;;;;;20.44;38.33;101496.53;4969119;28;2989;-64
2023/04/07 10:36:29;;;;;;;;;;;;;;;20.46;38.23;101494.50;4970956;28;2695;-63
2023/04/07 10:39:07;;;;;;;;;;;;;;;20.47;38.39;101490.25;4971154;28;2618;-63
2023/04/07 10:41:40;;;;;;;;;;;;;;;20.49;38.43;101493.22;4970167;28;2460;-63
2023/04/07 10:44:07;;;;;;;;;;;;;;;20.49;38.36;101489.63;4967913;28;1850;-63
2023/04/07 10:46:46;;;;;;;;;;;;;;;20.50;38.49;101488.22;4971009;28;2007;-63
2023/04/07 10:49:12;;;;;;;;;;;;;;;20.51;38.75;101478.97;4971740;28;1624;-63
2023/04/07 10:51:40;;;;;;;;;;;;;;;20.49;38.79;101478.84;4971475;28;1640;-63
2023/04/07 10:54:19;;;;;;;;;;;;;;;20.50;38.80;101483.22;4970909;28;1877;-62
2023/04/07 10:56:58;;;;;;;;;;;;;;;20.53;38.84;101480.47;4971225;28;1858;-64
2023/04/07 10:59:26;;;;;;;;;;;;;;;20.54;38.95;101473.31;4971342;28;1806;-63
2023/04/07 11:02:11;;;;;;;;;;;;;;;20.51;39.23;101476.09;4970903;28;2220;-76
2023/04/07 11:04:38;;;;;;;;;;;;;;;20.51;39.29;101481.84;4966895;28;1735;-64
2023/04/07 11:07:04;;;;;;;;;;;;;;;20.59;39.19;101489.44;4968732;28;2433;-63
2023/04/07 11:09:31;;;;;;;;;;;;;;;20.59;39.34;101486.56;4968699;28;2623;-64
2023/04/07 11:11:57;;;;;;;;;;;;;;;20.62;39.40;101479.56;4969808;28;2464;-62
2023/04/07 11:14:25;;;;;;;;;;;;;;;20.62;39.50;101485.31;4970464;28;2499;-63
2023/04/07 11:16:52;;;;;;;;;;;;;;;20.63;39.49;101478.16;4970145;28;1600;-64
2023/04/07 11:19:18;;;;;;;;;;;;;;;20.63;39.64;101478.16;4967763;28;2653;-64
2023/04/07 11:21:45;;;;;;;;;;;;;;;20.61;39.65;101475.91;4968358;28;3218;-64
2023/04/07 11:24:31;;;;;;;;;;;;;;;20.65;39.54;101479.03;4969519;28;2367;-64
2023/04/07 11:26:57;;;;;;;;;;;;;;;20.65;39.66;101481.16;4967667;28;2655;-64
2023/04/07 11:29:27;;;;;;;;;;;;;;;20.63;39.72;101478.16;4966587;28;2528;-63
2023/04/07 11:31:54;;;;;;;;;;;;;;;20.60;39.95;101473.69;4968443;28;2417;-64
2023/04/07 11:34:20;;;;;;;;;;;;;;;20.63;39.90;101475.28;4967090;28;2812;-60
2023/04/07 11:36:46;;;;;;;;;;;;;;;20.64;39.94;101479.69;4968199;28;2706;-62
2023/04/07 11:39:20;;;;;;;;;;;;;;;20.56;40.02;101479.19;4968868;28;2769;-63
2023/04/07 11:41:47;;;;;;;;;;;;;;;20.58;40.17;101476.47;4967331;28;2657;-63
2023/04/07 11:44:13;;;;;;;;;;;;;;;20.62;39.95;101488.19;4969479;28;2864;-63
2023/04/07 11:46:53;;;;;;;;;;;;;;;20.66;39.99;101492.03;4968031;28;2689;-63
2023/04/07 11:49:20;;;;;;;;;;;;;;;20.65;40.10;101472.53;4969853;28;2230;-62
2023/04/07 11:51:46;;;;;;;;;;;;;;;20.64;40.10;101473.94;4969106;28;2730;-63
2023/04/07 11:54:13;;;;;;;;;;;;;;;20.66;40.21;101471.13;4968247;28;2594;-63
2023/04/07 11:56:43;;;;;;;;;;;;;;;20.65;40.39;101475.41;4949764;28;2574;-62
2023/04/07 11:59:17;;;;;;;;;;;;;;;20.61;40.29;101475.19;4968788;28;2662;-63
2023/04/07 12:01:44;;;;;;;;;;;;;;;20.60;40.58;101480.19;4967791;28;2040;-63
2023/04/07 12:04:14;;;;;;;;;;;;;;;20.60;40.53;101479.44;4968367;28;2556;-63
2023/04/07 12:06:41;;;;;;;;;;;;;;;20.62;40.56;101476.69;4968623;28;2892;-63
2023/04/07 12:09:08;;;;;;;;;;;;;;;20.60;40.68;101482.31;4968295;28;1707;-62
2023/04/07 12:11:35;;;;;;;;;;;;;;;20.61;40.78;101486.69;4968994;28;2537;-63
2023/04/07 12:14:03;;;;;;;;;;;;;;;20.61;40.71;101486.69;4967885;28;2623;-63
2023/04/07 12:16:30;;;;;;;;;;;;;;;20.62;40.72;101476.69;4968368;28;2626;-62
2023/04/07 12:18:56;;;;;;;;;;;;;;;20.60;40.78;101490.97;4967601;28;2595;-63
2023/04/07 12:21:25;;;;;;;;;;;;;;;20.64;40.71;101491.19;4968829;28;2615;-62
2023/04/07 12:23:51;;;;;;;;;;;;;;;20.63;40.72;101483.94;4967364;28;2981;-62
2023/04/07 12:26:17;;;;;;;;;;;;;;;20.65;40.77;101481.16;4967180;28;2392;-63
2023/04/07 12:28:47;;;;;;;;;;;;;;;20.64;40.78;101476.81;4968756;28;2640;-63
2023/04/07 12:31:14;;;;;;;;;;;;;;;20.64;40.72;101477.53;4968132;28;2619;-63
2023/04/07 12:33:41;;;;;;;;;;;;;;;20.64;40.77;101479.69;4967993;28;2441;-63
2023/04/07 12:36:07;;;;;;;;;;;;;;;20.65;40.79;101484.78;4968092;28;2679;-63
2023/04/07 12:38:33;;;;;;;;;;;;;;;20.64;40.82;101482.56;4968302;28;2721;-62
2023/04/07 12:41:02;;;;;;;;;;;;;;;20.65;40.90;101492.66;4968797;28;1735;-62
2023/04/07 12:43:31;;;;;;;;;;;;;;;20.64;41.07;101489.06;4968009;28;2544;-63
2023/04/07 12:45:58;;;;;;;;;;;;;;;20.64;41.04;101488.31;4968832;28;2652;-63
2023/04/07 12:48:26;;;;;;;;;;;;;;;20.67;41.05;101489.91;4963742;28;2607;-63
2023/04/07 12:50:52;;;;;;;;;;;;;;;20.64;41.00;101486.19;4968364;28;1818;-63
2023/04/07 12:53:19;;;;;;;;;;;;;;;20.64;41.13;101494.06;4968686;28;2571;-63
2023/04/07 12:55:46;;;;;;;;;;;;;;;20.64;41.17;101485.44;4965750;28;2901;-63
2023/04/07 12:58:16;;;;;;;;;;;;;;;20.61;41.08;101483.81;4968955;28;2670;-63